Time;durP1;ratioP1;P1;durP2;ratioP2;P2;SDS_P1;SDS_P2;PMS_P1;PMS_P2;Temp;Humidity;BMP_temperature;BMP_pressure;BME280_temperature;BME280_humidity;BME280_pressure;Samples;Min_cycle;Max_cycle;Signal;HPM_P1;HPM_P2
2022/10/17 00:00:37;;;;;;;9.43;8.82;;;;;;;;;;5015144;28;20069;-67
2022/10/17 00:03:03;;;;;;;9.57;8.88;;;;;;;;;;5016846;28;20046;-67
2022/10/17 00:05:28;;;;;;;9.00;8.40;;;;;;;;;;5034588;28;20370;-65
2022/10/17 00:07:54;;;;;;;8.82;8.23;;;;;;;;;;5017419;28;20035;-65
2022/10/17 00:10:20;;;;;;;8.95;8.35;;;;;;;;;;5017448;28;20095;-65
2022/10/17 00:12:45;;;;;;;9.43;8.82;;;;;;;;;;5015894;28;20027;-67
2022/10/17 00:15:14;;;;;;;9.70;9.10;;;;;;;;;;5017680;28;20095;-67
2022/10/17 00:17:40;;;;;;;8.25;7.75;;;;;;;;;;5015251;28;20413;-67
2022/10/17 00:20:07;;;;;;;7.95;7.45;;;;;;;;;;5013879;28;20046;-66
2022/10/17 00:22:32;;;;;;;7.82;7.32;;;;;;;;;;5014118;28;20044;-67
2022/10/17 00:24:57;;;;;;;8.30;7.80;;;;;;;;;;5014932;28;20377;-67
2022/10/17 00:27:23;;;;;;;9.70;9.00;;;;;;;;;;5016450;28;20034;-67
2022/10/17 00:29:49;;;;;;;8.80;8.20;;;;;;;;;;5018374;28;20021;-67
2022/10/17 00:32:14;;;;;;;9.38;8.65;;;;;;;;;;5015482;28;20340;-67
2022/10/17 00:34:40;;;;;;;8.90;8.30;;;;;;;;;;5015264;28;20036;-67
2022/10/17 00:37:05;;;;;;;8.15;7.65;;;;;;;;;;5016786;28;20426;-70
2022/10/17 00:39:31;;;;;;;8.90;8.30;;;;;;;;;;5016979;28;20116;-66
2022/10/17 00:41:56;;;;;;;9.50;8.85;;;;;;;;;;5016166;28;20030;-66
2022/10/17 00:44:30;;;;;;;9.65;8.93;;;;;;;;;;5015573;28;20040;-65
2022/10/17 00:47:03;;;;;;;7.70;7.20;;;;;;;;;;5019681;28;20117;-65
2022/10/17 00:49:33;;;;;;;9.93;9.32;;;;;;;;;;5010883;28;20026;-65
2022/10/17 00:52:01;;;;;;;9.52;8.93;;;;;;;;;;5010043;28;20346;-65
2022/10/17 00:54:33;;;;;;;9.68;9.07;;;;;;;;;;5015833;28;20120;-67
2022/10/17 00:56:59;;;;;;;8.65;8.10;;;;;;;;;;5016616;28;20021;-67
2022/10/17 00:59:25;;;;;;;8.98;8.38;;;;;;;;;;5014456;28;20314;-67
2022/10/17 01:01:59;;;;;;;8.15;7.65;;;;;;;;;;5017635;28;20052;-67
2022/10/17 01:04:24;;;;;;;9.73;9.13;;;;;;;;;;5018796;28;20030;-67
2022/10/17 01:06:50;;;;;;;9.38;8.77;;;;;;;;;;5016480;28;20887;-68
2022/10/17 01:09:15;;;;;;;9.68;9.07;;;;;;;;;;5018231;28;20037;-67
2022/10/17 01:11:41;;;;;;;9.93;8.95;;;;;;;;;;5017164;28;20108;-67
2022/10/17 01:14:41;;;;;;;9.23;8.63;;;;;;;;;;5012673;28;20030;-67
2022/10/17 01:17:13;;;;;;;8.63;8.05;;;;;;;;;;5012442;28;20073;-67
2022/10/17 01:20:02;;;;;;;8.95;8.32;;;;;;;;;;5016611;28;20056;-67
2022/10/17 01:22:44;;;;;;;8.82;8.23;;;;;;;;;;5013831;28;20064;-65
2022/10/17 01:25:51;;;;;;;8.82;8.23;;;;;;;;;;5014766;28;20037;-66
2022/10/17 01:28:38;;;;;;;8.63;8.02;;;;;;;;;;5017343;28;20482;-66
2022/10/17 01:31:12;;;;;;;7.90;7.40;;;;;;;;;;5019203;28;20040;-66
2022/10/17 01:34:08;;;;;;;8.63;8.05;;;;;;;;;;5021662;28;20025;-66
2022/10/17 01:37:05;;;;;;;8.90;8.30;;;;;;;;;;5018391;28;20048;-69
2022/10/17 01:39:42;;;;;;;8.45;7.88;;;;;;;;;;5020876;28;20670;-68
2022/10/17 01:42:15;;;;;;;9.30;8.60;;;;;;;;;;5015618;28;20442;-69
2022/10/17 01:44:58;;;;;;;8.40;7.80;;;;;;;;;;5018961;28;20109;-69
2022/10/17 01:47:29;;;;;;;8.50;7.90;;;;;;;;;;5022055;28;20037;-69
2022/10/17 01:49:59;;;;;;;8.38;7.85;;;;;;;;;;5020389;28;20021;-69
2022/10/17 01:52:31;;;;;;;8.90;8.30;;;;;;;;;;5023565;28;20095;-68
2022/10/17 01:55:05;;;;;;;8.30;7.70;;;;;;;;;;5018416;28;20029;-67
2022/10/17 01:57:36;;;;;;;8.73;8.13;;;;;;;;;;5019621;28;20547;-69
2022/10/17 02:00:07;;;;;;;9.43;8.82;;;;;;;;;;5020518;28;20034;-69
2022/10/17 02:02:33;;;;;;;;;;;;;;;;;;5019250;28;20152;-68
2022/10/17 02:05:02;;;;;;;7.97;7.47;;;;;;;;;;5018457;28;20310;-67
2022/10/17 02:07:28;;;;;;;8.70;8.10;;;;;;;;;;5019029;28;20091;-67
2022/10/17 02:09:53;;;;;;;9.30;8.60;;;;;;;;;;5022799;28;20116;-66
2022/10/17 02:12:34;;;;;;;9.70;9.10;;;;;;;;;;5017854;28;20048;-67
2022/10/17 02:15:18;;;;;;;;;;;;;;;;;;5018894;28;20032;-67
2022/10/17 02:18:05;;;;;;;8.65;8.10;;;;;;;;;;5017851;28;20007;-67
2022/10/17 02:20:55;;;;;;;9.18;8.57;;;;;;;;;;5017995;28;20033;-67
2022/10/17 02:23:36;;;;;;;9.10;8.50;;;;;;;;;;5021316;28;20033;-68
2022/10/17 02:26:06;;;;;;;;;;;;;;;;;;5016572;28;20029;-69
2022/10/17 02:29:01;;;;;;;8.30;7.80;;;;;;;;;;5016063;28;19924;-69
2022/10/17 02:31:37;;;;;;;8.85;8.25;;;;;;;;;;5017427;28;20028;-68
2022/10/17 02:34:16;;;;;;;9.10;8.40;;;;;;;;;;5017292;28;20033;-67
2022/10/17 02:36:46;;;;;;;9.40;8.80;;;;;;;;;;5018602;28;20026;-67
2022/10/17 02:39:12;;;;;;;9.43;8.82;;;;;;;;;;5021070;28;20104;-67
2022/10/17 02:41:39;;;;;;;9.23;8.63;;;;;;;;;;5020451;28;20053;-69
2022/10/17 02:44:07;;;;;;;9.40;8.80;;;;;;;;;;5019984;28;20072;-69
2022/10/17 02:46:34;;;;;;;9.73;9.13;;;;;;;;;;5017341;28;20053;-69
2022/10/17 02:49:06;;;;;;;9.80;9.20;;;;;;;;;;5016834;28;20048;-69
2022/10/17 02:51:38;;;;;;;9.95;9.25;;;;;;;;;;5017541;28;20040;-68
2022/10/17 02:54:11;;;;;;;10.50;9.80;;;;;;;;;;5020899;28;20030;-69
2022/10/17 02:56:42;;;;;;;10.90;10.15;;;;;;;;;;5015590;28;20072;-68
2022/10/17 02:59:12;;;;;;;10.52;9.73;;;;;;;;;;5017708;28;20033;-67
2022/10/17 03:01:38;;;;;;;9.97;9.37;;;;;;;;;;5017832;28;20029;-67
2022/10/17 03:04:12;;;;;;;13.23;9.45;;;;;;;;;;5015251;28;20427;-67
2022/10/17 03:06:39;;;;;;;10.20;9.18;;;;;;;;;;5016711;28;20033;-68
2022/10/17 03:09:06;;;;;;;9.88;9.27;;;;;;;;;;5016354;28;20026;-67
2022/10/17 03:11:31;;;;;;;9.63;9.02;;;;;;;;;;5018960;28;20048;-68
2022/10/17 03:13:56;;;;;;;9.45;8.85;;;;;;;;;;5018830;28;20452;-67
2022/10/17 03:16:22;;;;;;;9.35;8.75;;;;;;;;;;5016014;28;20033;-67
2022/10/17 03:18:47;;;;;;;9.43;8.82;;;;;;;;;;5016161;28;20030;-67
2022/10/17 03:21:13;;;;;;;10.95;10.25;;;;;;;;;;5015524;28;20057;-68
2022/10/17 03:23:38;;;;;;;11.05;10.35;;;;;;;;;;5011964;28;20667;-67
2022/10/17 03:26:04;;;;;;;10.80;10.10;;;;;;;;;;5024181;28;20513;-68
2022/10/17 03:28:30;;;;;;;10.57;9.88;;;;;;;;;;5019023;28;20397;-67
2022/10/17 03:30:55;;;;;;;10.25;9.63;;;;;;;;;;5031601;28;20029;-67
2022/10/17 03:33:21;;;;;;;9.70;9.10;;;;;;;;;;5016496;28;20092;-67
2022/10/17 03:35:46;;;;;;;9.60;9.00;;;;;;;;;;5013468;28;20028;-67
2022/10/17 03:38:11;;;;;;;9.43;8.82;;;;;;;;;;5016600;28;20447;-67
2022/10/17 03:40:37;;;;;;;9.45;8.85;;;;;;;;;;5015122;28;20025;-67
2022/10/17 03:43:02;;;;;;;9.27;8.68;;;;;;;;;;5016853;28;20037;-67
2022/10/17 03:45:27;;;;;;;10.30;9.60;;;;;;;;;;5018805;28;20033;-67
2022/10/17 03:47:53;;;;;;;9.52;8.93;;;;;;;;;;5013224;28;20440;-67
2022/10/17 03:50:18;;;;;;;9.95;9.35;;;;;;;;;;5015891;28;20033;-67
2022/10/17 03:52:47;;;;;;;9.40;8.80;;;;;;;;;;5014871;28;20029;-67
2022/10/17 03:55:13;;;;;;;10.65;9.95;;;;;;;;;;5016628;28;20092;-67
2022/10/17 03:57:38;;;;;;;10.23;9.55;;;;;;;;;;5018895;28;20026;-66
2022/10/17 04:00:04;;;;;;;10.52;9.68;;;;;;;;;;5020881;28;20029;-69
2022/10/17 04:02:30;;;;;;;10.18;9.55;;;;;;;;;;5014512;28;20106;-69
2022/10/17 04:04:55;;;;;;;10.93;10.23;;;;;;;;;;5017630;28;20386;-68
2022/10/17 04:07:20;;;;;;;10.20;9.50;;;;;;;;;;5014667;28;20653;-67
2022/10/17 04:09:46;;;;;;;10.30;9.63;;;;;;;;;;5016874;28;20475;-67
2022/10/17 04:12:11;;;;;;;9.73;9.13;;;;;;;;;;5014110;28;20575;-67
2022/10/17 04:14:37;;;;;;;9.82;9.23;;;;;;;;;;5014835;28;20522;-67
2022/10/17 04:17:03;;;;;;;9.85;9.25;;;;;;;;;;5014404;28;20062;-67
2022/10/17 04:19:28;;;;;;;9.32;8.73;;;;;;;;;;5011070;28;20113;-68
2022/10/17 04:21:53;;;;;;;9.02;8.43;;;;;;;;;;5014013;28;20095;-68
2022/10/17 04:24:19;;;;;;;9.98;9.18;;;;;;;;;;5015207;28;20829;-68
2022/10/17 04:26:47;;;;;;;9.15;8.55;;;;;;;;;;5013363;28;20033;-67
2022/10/17 04:29:14;;;;;;;8.85;8.25;;;;;;;;;;5015923;28;20391;-68
2022/10/17 04:31:39;;;;;;;8.77;8.18;;;;;;;;;;5014190;28;20047;-68
2022/10/17 04:34:04;;;;;;;8.30;7.80;;;;;;;;;;5014724;28;20124;-68
2022/10/17 04:36:30;;;;;;;9.57;8.98;;;;;;;;;;5015447;28;20029;-68
2022/10/17 04:38:55;;;;;;;10.07;9.48;;;;;;;;;;5015136;28;20057;-67
2022/10/17 04:41:21;;;;;;;9.77;9.07;;;;;;;;;;5013555;28;20045;-68
2022/10/17 04:43:46;;;;;;;9.43;8.82;;;;;;;;;;5016771;28;20398;-67
2022/10/17 04:46:13;;;;;;;8.75;8.15;;;;;;;;;;5014486;28;20026;-67
2022/10/17 04:48:39;;;;;;;10.10;9.50;;;;;;;;;;5015364;28;20045;-67
2022/10/17 04:51:16;;;;;;;9.05;8.45;;;;;;;;;;5015482;28;20191;-67
2022/10/17 04:53:43;;;;;;;8.93;8.32;;;;;;;;;;5016248;28;20040;-66
2022/10/17 04:56:10;;;;;;;8.90;8.30;;;;;;;;;;5015752;28;20030;-66
2022/10/17 04:58:36;;;;;;;9.27;8.68;;;;;;;;;;5047867;28;20041;-68
2022/10/17 05:01:05;;;;;;;8.30;7.80;;;;;;;;;;5018964;28;20148;-68
2022/10/17 05:03:31;;;;;;;8.82;8.23;;;;;;;;;;5015602;28;20103;-66
2022/10/17 05:05:56;;;;;;;9.25;8.65;;;;;;;;;;5016367;28;20033;-68
2022/10/17 05:08:22;;;;;;;10.35;9.65;;;;;;;;;;5020167;28;20044;-68
2022/10/17 05:10:47;;;;;;;8.82;8.23;;;;;;;;;;5020040;28;20037;-69
2022/10/17 05:13:13;;;;;;;9.13;8.52;;;;;;;;;;5019870;28;20034;-69
2022/10/17 05:15:38;;;;;;;9.77;9.18;;;;;;;;;;5018626;28;20083;-68
2022/10/17 05:18:05;;;;;;;9.68;9.05;;;;;;;;;;5018590;28;20083;-68
2022/10/17 05:20:31;;;;;;;8.73;8.13;;;;;;;;;;5017545;28;20120;-68
2022/10/17 05:23:01;;;;;;;9.95;9.25;;;;;;;;;;5017739;28;20029;-69
2022/10/17 05:25:26;;;;;;;9.27;8.68;;;;;;;;;;5019126;28;20030;-67
2022/10/17 05:27:52;;;;;;;9.65;9.00;;;;;;;;;;5018155;28;20463;-68
2022/10/17 05:30:18;;;;;;;9.25;8.65;;;;;;;;;;5017671;28;20097;-68
2022/10/17 05:32:43;;;;;;;9.00;8.40;;;;;;;;;;5017168;28;20045;-66
2022/10/17 05:35:09;;;;;;;9.07;8.48;;;;;;;;;;5018085;28;20026;-68
2022/10/17 05:37:34;;;;;;;9.77;9.18;;;;;;;;;;5018859;28;20033;-66
2022/10/17 05:39:59;;;;;;;9.48;8.88;;;;;;;;;;5020035;28;20030;-66
2022/10/17 05:42:25;;;;;;;9.43;8.82;;;;;;;;;;5019661;28;20061;-65
2022/10/17 05:44:50;;;;;;;9.20;8.60;;;;;;;;;;5019237;28;20021;-67
2022/10/17 05:47:16;;;;;;;9.57;8.98;;;;;;;;;;5052640;28;20033;-66
2022/10/17 05:49:41;;;;;;;9.20;8.60;;;;;;;;;;5020021;28;20487;-67
2022/10/17 05:52:06;;;;;;;9.20;8.60;;;;;;;;;;5017095;28;20588;-68
2022/10/17 05:54:32;;;;;;;9.48;8.88;;;;;;;;;;5021577;28;20418;-67
2022/10/17 05:56:57;;;;;;;9.73;8.88;;;;;;;;;;5021513;28;20026;-67
2022/10/17 05:59:24;;;;;;;9.85;9.00;;;;;;;;;;5024004;28;20450;-66
2022/10/17 06:01:50;;;;;;;8.95;8.35;;;;;;;;;;5050931;28;20064;-67
2022/10/17 06:04:15;;;;;;;9.52;8.93;;;;;;;;;;5016901;28;20029;-64
2022/10/17 06:06:40;;;;;;;9.43;8.82;;;;;;;;;;5018742;28;20471;-67
2022/10/17 06:09:06;;;;;;;10.05;9.15;;;;;;;;;;5018607;28;20117;-65
2022/10/17 06:11:32;;;;;;;11.07;10.18;;;;;;;;;;5019686;28;20104;-66
2022/10/17 06:13:58;;;;;;;11.23;10.43;;;;;;;;;;5018238;28;20105;-67
2022/10/17 06:16:23;;;;;;;9.10;8.50;;;;;;;;;;5018732;28;20686;-68
2022/10/17 06:18:49;;;;;;;9.00;8.40;;;;;;;;;;5015780;28;20022;-67
2022/10/17 06:21:18;;;;;;;9.50;8.90;;;;;;;;;;5012981;28;20111;-67
2022/10/17 06:23:43;;;;;;;9.93;9.20;;;;;;;;;;5047197;28;20034;-68
2022/10/17 06:26:09;;;;;;;12.32;10.48;;;;;;;;;;5014347;28;20040;-67
2022/10/17 06:28:35;;;;;;;9.82;9.23;;;;;;;;;;5015666;28;20071;-67
2022/10/17 06:31:08;;;;;;;9.70;9.00;;;;;;;;;;5015081;28;20053;-67
2022/10/17 06:33:34;;;;;;;9.30;8.60;;;;;;;;;;5016550;28;20034;-67
2022/10/17 06:36:00;;;;;;;9.65;9.05;;;;;;;;;;5014491;28;20432;-67
2022/10/17 06:38:26;;;;;;;9.73;9.10;;;;;;;;;;5014761;28;20022;-67
2022/10/17 06:40:52;;;;;;;9.98;9.27;;;;;;;;;;5016417;28;20087;-67
2022/10/17 06:43:18;;;;;;;9.27;8.68;;;;;;;;;;5018052;28;20037;-67
2022/10/17 06:45:45;;;;;;;9.55;8.95;;;;;;;;;;5033693;28;20041;-67
2022/10/17 06:48:10;;;;;;;8.68;8.07;;;;;;;;;;5014207;28;20042;-67
2022/10/17 06:50:36;;;;;;;9.70;9.10;;;;;;;;;;5017396;28;20021;-67
2022/10/17 06:53:01;;;;;;;10.68;9.98;;;;;;;;;;5018493;28;20040;-67
2022/10/17 06:55:26;;;;;;;9.52;8.93;;;;;;;;;;5016021;28;20448;-67
2022/10/17 06:57:54;;;;;;;10.75;10.05;;;;;;;;;;5016127;28;20399;-67
2022/10/17 07:00:22;;;;;;;12.48;11.57;;;;;;;;;;5017690;28;20045;-67
2022/10/17 07:02:47;;;;;;;10.55;9.88;;;;;;;;;;5013042;28;20120;-67
2022/10/17 07:05:13;;;;;;;10.43;9.75;;;;;;;;;;5015584;28;20128;-67
2022/10/17 07:07:38;;;;;;;11.50;10.75;;;;;;;;;;5016993;28;20454;-67
2022/10/17 07:10:07;;;;;;;11.70;10.65;;;;;;;;;;5017663;28;20040;-67
2022/10/17 07:12:33;;;;;;;11.50;10.80;;;;;;;;;;5016421;28;20249;-67
2022/10/17 07:14:59;;;;;;;11.48;10.70;;;;;;;;;;5015593;28;20037;-67
2022/10/17 07:17:24;;;;;;;10.57;9.98;;;;;;;;;;5014824;28;20382;-67
2022/10/17 07:19:50;;;;;;;11.43;10.63;;;;;;;;;;5016418;28;20804;-67
2022/10/17 07:22:15;;;;;;;12.35;11.38;;;;;;;;;;5017904;28;20366;-67
2022/10/17 07:24:40;;;;;;;10.00;9.40;;;;;;;;;;5019049;28;20026;-67
2022/10/17 07:27:06;;;;;;;12.05;11.32;;;;;;;;;;5017803;28;20847;-67
2022/10/17 07:29:31;;;;;;;14.18;11.43;;;;;;;;;;5013176;28;20547;-67
2022/10/17 07:31:56;;;;;;;12.55;11.75;;;;;;;;;;5015943;28;20107;-67
2022/10/17 07:34:26;;;;;;;10.32;9.73;;;;;;;;;;5014965;28;20033;-67
2022/10/17 07:36:52;;;;;;;10.77;10.07;;;;;;;;;;5017028;28;20026;-67
2022/10/17 07:39:17;;;;;;;12.13;10.88;;;;;;;;;;5014831;28;20022;-67
2022/10/17 07:41:43;;;;;;;10.50;9.90;;;;;;;;;;5022246;28;20067;-67
2022/10/17 07:44:08;;;;;;;10.30;9.60;;;;;;;;;;5014989;28;20534;-67
2022/10/17 07:46:34;;;;;;;9.60;9.00;;;;;;;;;;5013982;28;20102;-67
2022/10/17 07:48:59;;;;;;;10.18;9.45;;;;;;;;;;5013300;28;20041;-67
2022/10/17 07:51:25;;;;;;;10.55;9.88;;;;;;;;;;5016934;28;20538;-67
2022/10/17 07:53:51;;;;;;;10.93;9.95;;;;;;;;;;5018272;28;20120;-68
2022/10/17 07:56:16;;;;;;;10.57;9.88;;;;;;;;;;5015731;28;20037;-67
2022/10/17 07:58:41;;;;;;;9.70;9.00;;;;;;;;;;5014178;28;20064;-66
2022/10/17 08:01:13;;;;;;;9.30;8.60;;;;;;;;;;5014469;28;20052;-67
2022/10/17 08:03:38;;;;;;;9.90;9.30;;;;;;;;;;5016412;28;20039;-66
2022/10/17 08:06:04;;;;;;;10.25;9.48;;;;;;;;;;5014961;28;20038;-66
2022/10/17 08:08:29;;;;;;;9.68;8.73;;;;;;;;;;5015322;28;20044;-65
2022/10/17 08:11:00;;;;;;;8.35;7.75;;;;;;;;;;5015459;28;20035;-65
2022/10/17 08:13:25;;;;;;;8.73;8.13;;;;;;;;;;5014463;28;20049;-64
2022/10/17 08:15:51;;;;;;;9.32;8.63;;;;;;;;;;5048559;28;20732;-64
2022/10/17 08:18:17;;;;;;;9.07;8.23;;;;;;;;;;5017318;28;20037;-64
2022/10/17 08:20:42;;;;;;;9.27;8.57;;;;;;;;;;5017567;28;20030;-64
2022/10/17 08:23:08;;;;;;;7.80;7.30;;;;;;;;;;5014734;28;20052;-64
2022/10/17 08:25:37;;;;;;;8.98;8.23;;;;;;;;;;5016029;28;20112;-64
2022/10/17 08:28:02;;;;;;;8.35;7.75;;;;;;;;;;5016767;28;20087;-64
2022/10/17 08:30:29;;;;;;;9.43;8.82;;;;;;;;;;5015977;28;20034;-64
2022/10/17 08:32:55;;;;;;;8.50;7.80;;;;;;;;;;5015072;28;20783;-65
2022/10/17 08:35:21;;;;;;;7.82;7.32;;;;;;;;;;5017536;28;20060;-66
2022/10/17 08:37:46;;;;;;;8.93;8.32;;;;;;;;;;5022080;28;20029;-65
2022/10/17 08:40:20;;;;;;;8.40;7.80;;;;;;;;;;5018515;28;20029;-66
2022/10/17 08:43:03;;;;;;;9.60;8.90;;;;;;;;;;5018739;28;20033;-66
2022/10/17 08:45:45;;;;;;;9.70;9.10;;;;;;;;;;5023102;28;20025;-65
2022/10/17 08:48:17;;;;;;;11.35;10.65;;;;;;;;;;5018978;28;20044;-65
2022/10/17 08:50:51;;;;;;;11.88;11.18;;;;;;;;;;5017489;28;20022;-64
2022/10/17 08:53:40;;;;;;;12.95;12.15;;;;;;;;;;5018834;28;20037;-64
2022/10/17 08:56:21;;;;;;;10.30;9.65;;;;;;;;;;5014706;28;20145;-64
2022/10/17 08:58:47;;;;;;;17.05;16.08;;;;;;;;;;5047885;28;20578;-64
2022/10/17 09:01:33;;;;;;;15.48;14.57;;;;;;;;;;5018756;28;20138;-64
2022/10/17 09:04:17;;;;;;;14.60;13.70;;;;;;;;;;5016001;28;20152;-65
2022/10/17 09:06:56;;;;;;;22.00;20.80;;;;;;;;;;5017660;28;20096;-65
2022/10/17 09:09:35;;;;;;;22.55;21.35;;;;;;;;;;5015871;28;20036;-64
2022/10/17 09:12:34;;;;;;;18.15;17.15;;;;;;;;;;5019072;28;20096;-64
2022/10/17 09:15:18;;;;;;;21.67;20.48;;;;;;;;;;5019446;28;20647;-64
2022/10/17 09:17:57;;;;;;;23.02;21.75;;;;;;;;;;5013347;28;20030;-64
2022/10/17 09:20:35;;;;;;;19.42;18.25;;;;;;;;;;5019972;28;20040;-64
2022/10/17 09:23:05;;;;;;;20.15;19.05;;;;;;;;;;5020042;28;20185;-64
2022/10/17 09:25:39;;;;;;;20.42;19.23;;;;;;;;;;5021527;28;20041;-64
2022/10/17 09:28:24;;;;;;;22.48;21.23;;;;;;;;;;5017974;28;20167;-64
2022/10/17 09:30:55;;;;;;;22.40;21.10;;;;;;;;;;5019568;28;20332;-64
2022/10/17 09:33:43;;;;;;;23.70;22.40;;;;;;;;;;5018678;28;20040;-63
2022/10/17 09:36:23;;;;;;;21.15;20.02;;;;;;;;;;5019673;28;20682;-64
2022/10/17 09:39:02;;;;;;;27.27;25.83;;;;;;;;;;5019423;28;20474;-65
2022/10/17 09:41:44;;;;;;;25.45;24.10;;;;;;;;;;5015626;28;20034;-64
2022/10/17 09:44:14;;;;;;;26.40;24.98;;;;;;;;;;5016410;28;20069;-65
2022/10/17 09:46:42;;;;;;;23.25;21.92;;;;;;;;;;5013792;28;20600;-65
2022/10/17 09:49:18;;;;;;;33.00;31.30;;;;;;;;;;5016436;28;20033;-65
2022/10/17 09:51:44;;;;;;;34.90;33.10;;;;;;;;;;5020992;28;20068;-64
2022/10/17 09:54:20;;;;;;;35.80;33.80;;;;;;;;;;5019695;28;20077;-65
2022/10/17 09:56:58;;;;;;;28.45;26.88;;;;;;;;;;5018796;28;20102;-65
2022/10/17 09:59:31;;;;;;;26.63;25.13;;;;;;;;;;5018297;28;20045;-65
2022/10/17 10:02:20;;;;;;;29.30;27.73;;;;;;;;;;5016230;28;20029;-64
2022/10/17 10:04:56;;;;;;;26.08;24.70;;;;;;;;;;5015734;28;20111;-64
2022/10/17 10:07:22;;;;;;;31.33;29.73;;;;;;;;;;5015955;28;20036;-65
2022/10/17 10:09:49;;;;;;;31.25;29.45;;;;;;;;;;5015824;28;20120;-65
2022/10/17 10:12:21;;;;;;;34.47;32.35;;;;;;;;;;5015769;28;20026;-66
2022/10/17 10:14:46;;;;;;;29.63;28.02;;;;;;;;;;5016046;28;20380;-67
2022/10/17 10:17:40;;;;;;;31.27;29.58;;;;;;;;;;5020725;28;20136;-65
2022/10/17 10:20:39;;;;;;;29.77;28.05;;;;;;;;;;5017683;28;20072;-63
2022/10/17 10:23:20;;;;;;;26.98;25.48;;;;;;;;;;4990122;28;20041;-63
2022/10/17 10:25:55;;;;;;;;;;;;;;;;;;5017646;28;20051;-65
2022/10/17 10:28:28;;;;;;;29.35;27.75;;;;;;;;;;5017777;28;20651;-66
2022/10/17 10:30:56;;;;;;;34.30;32.50;;;;;;;;;;5017404;28;20120;-67
2022/10/17 10:33:26;;;;;;;30.90;29.30;;;;;;;;;;5017253;28;20046;-67
2022/10/17 10:36:00;;;;;;;32.30;30.58;;;;;;;;;;5019560;28;20525;-66
2022/10/17 10:38:26;;;;;;;32.85;31.10;;;;;;;;;;5015023;28;20069;-66
2022/10/17 10:40:54;;;;;;;36.17;34.33;;;;;;;;;;5015471;28;20115;-65
2022/10/17 10:43:29;;;;;;;37.65;35.70;;;;;;;;;;5018004;28;20119;-65
2022/10/17 10:45:55;;;;;;;44.05;41.80;;;;;;;;;;5019276;28;20774;-67
2022/10/17 10:48:24;;;;;;;44.45;42.20;;;;;;;;;;5021828;28;20038;-65
2022/10/17 10:51:00;;;;;;;40.30;38.27;;;;;;;;;;5016762;28;20026;-65
2022/10/17 10:53:42;;;;;;;38.25;35.50;;;;;;;;;;5014272;28;21046;-65
2022/10/17 10:56:17;;;;;;;50.63;48.00;;;;;;;;;;5015320;28;20049;-66
2022/10/17 10:58:59;;;;;;;51.00;47.95;;;;;;;;;;5015652;28;20029;-65
2022/10/17 11:01:30;;;;;;;50.42;47.90;;;;;;;;;;5016850;28;20167;-65
2022/10/17 11:04:18;;;;;;;50.97;48.33;;;;;;;;;;5019872;28;20049;-64
2022/10/17 11:06:44;;;;;;;40.60;38.17;;;;;;;;;;5017014;28;20032;-65
2022/10/17 11:09:27;;;;;;;44.83;42.53;;;;;;;;;;5017111;28;20034;-65
2022/10/17 11:11:59;;;;;;;54.00;51.10;;;;;;;;;;5017279;28;20068;-65
2022/10/17 11:14:38;;;;;;;44.35;41.53;;;;;;;;;;5017468;28;20034;-65
2022/10/17 11:17:17;;;;;;;29.00;27.50;;;;;;;;;;5015656;28;20048;-65
2022/10/17 11:19:58;;;;;;;37.33;35.42;;;;;;;;;;5019427;28;20367;-65
2022/10/17 11:22:45;;;;;;;25.38;24.00;;;;;;;;;;5032160;28;20046;-65
2022/10/17 11:25:11;;;;;;;26.20;24.80;;;;;;;;;;5020324;28;20060;-65
2022/10/17 11:27:37;;;;;;;26.77;25.38;;;;;;;;;;5016539;28;20123;-65
2022/10/17 11:30:04;;;;;;;33.72;31.90;;;;;;;;;;5017458;28;20037;-65
2022/10/17 11:32:50;;;;;;;30.98;29.35;;;;;;;;;;5019012;28;20080;-65
2022/10/17 11:35:25;;;;;;;29.80;28.08;;;;;;;;;;5015876;28;20163;-64
2022/10/17 11:38:13;;;;;;;35.58;33.75;;;;;;;;;;5015709;28;20037;-65
2022/10/17 11:40:43;;;;;;;30.42;28.83;;;;;;;;;;5016009;28;20095;-65
2022/10/17 11:43:31;;;;;;;35.15;33.35;;;;;;;;;;5018075;28;20036;-64
2022/10/17 11:46:15;;;;;;;50.03;47.45;;;;;;;;;;5017400;28;20639;-64
2022/10/17 11:48:49;;;;;;;44.97;42.33;;;;;;;;;;5020036;28;20036;-64
2022/10/17 11:51:15;;;;;;;36.47;34.60;;;;;;;;;;5018574;28;20063;-65
2022/10/17 11:53:47;;;;;;;55.08;52.30;;;;;;;;;;5015616;28;20026;-65
2022/10/17 11:56:18;;;;;;;54.05;51.33;;;;;;;;;;5018245;28;20033;-65
2022/10/17 11:58:53;;;;;;;37.53;35.58;;;;;;;;;;5018676;28;20057;-65
2022/10/17 12:01:40;;;;;;;56.67;53.83;;;;;;;;;;5017638;28;20034;-64
2022/10/17 12:04:39;;;;;;;57.35;54.50;;;;;;;;;;5014181;28;20084;-64
2022/10/17 12:07:18;;;;;;;50.83;48.25;;;;;;;;;;5015719;28;20022;-64
2022/10/17 12:10:00;;;;;;;63.03;59.75;;;;;;;;;;5015832;28;20079;-62
2022/10/17 12:12:31;;;;;;;59.97;56.97;;;;;;;;;;5015894;28;20033;-65
2022/10/17 12:15:12;;;;;;;70.70;67.15;;;;;;;;;;5016786;28;20049;-65
2022/10/17 12:17:39;;;;;;;;;;;;;;;;;;5016702;28;20053;-65
2022/10/17 12:20:20;;;;;;;59.22;56.25;;;;;;;;;;5015359;28;19913;-65
2022/10/17 12:22:54;;;;;;;69.75;66.25;;;;;;;;;;5014674;28;20030;-65
2022/10/17 12:25:25;;;;;;;76.63;72.75;;;;;;;;;;5014220;28;20103;-66
2022/10/17 12:28:01;;;;;;;80.40;76.43;;;;;;;;;;5017658;28;20040;-67
2022/10/17 12:30:27;;;;;;;78.32;74.43;;;;;;;;;;5015037;28;20033;-67
2022/10/17 12:33:22;;;;;;;82.88;78.82;;;;;;;;;;5013472;28;20140;-67
2022/10/17 12:36:16;;;;;;;79.20;75.30;;;;;;;;;;5016618;28;20030;-66
2022/10/17 12:38:43;;;;;;;86.57;82.32;;;;;;;;;;5017563;28;20040;-66
2022/10/17 12:41:08;;;;;;;90.68;86.22;;;;;;;;;;5016463;28;20029;-67
2022/10/17 12:43:52;;;;;;;86.70;82.43;;;;;;;;;;5016760;28;20521;-66
2022/10/17 12:46:47;;;;;;;87.20;82.97;;;;;;;;;;5015622;28;20034;-65
2022/10/17 12:49:20;;;;;;;81.55;77.55;;;;;;;;;;5014731;28;20026;-66
2022/10/17 12:52:15;;;;;;;79.70;75.78;;;;;;;;;;5014879;28;20280;-67
2022/10/17 12:54:44;;;;;;;76.80;73.00;;;;;;;;;;5015636;28;20037;-66
2022/10/17 12:57:47;;;;;;;77.50;73.65;;;;;;;;;;5015512;28;20107;-66
2022/10/17 13:00:18;;;;;;;78.13;74.25;;;;;;;;;;5016481;28;20088;-66
2022/10/17 13:02:44;;;;;;;78.95;75.03;;;;;;;;;;5014533;28;20030;-68
2022/10/17 13:05:22;;;;;;;72.75;69.07;;;;;;;;;;5018299;28;20029;-68
2022/10/17 13:07:48;;;;;;;62.55;59.42;;;;;;;;;;5021457;28;20443;-65
2022/10/17 13:10:23;;;;;;;90.38;85.95;;;;;;;;;;5015210;28;20041;-65
2022/10/17 13:12:50;;;;;;;100.32;95.40;;;;;;;;;;5014450;28;20460;-66
2022/10/17 13:15:18;;;;;;;128.95;122.68;;;;;;;;;;5015811;28;20037;-65
2022/10/17 13:17:44;;;;;;;128.13;121.82;;;;;;;;;;5016496;28;20069;-65
2022/10/17 13:20:24;;;;;;;120.30;114.38;;;;;;;;;;5014930;28;20074;-66
2022/10/17 13:22:49;;;;;;;129.53;123.13;;;;;;;;;;5018614;28;20531;-64
2022/10/17 13:25:18;;;;;;;140.82;133.90;;;;;;;;;;5019362;28;20041;-65
2022/10/17 13:27:44;;;;;;;146.02;138.88;;;;;;;;;;5020097;28;20487;-64
2022/10/17 13:30:27;;;;;;;146.20;139.05;;;;;;;;;;5018538;28;20034;-65
2022/10/17 13:32:53;;;;;;;148.05;140.75;;;;;;;;;;5018328;28;20095;-65
2022/10/17 13:35:27;;;;;;;139.48;132.63;;;;;;;;;;5018675;28;20033;-64
2022/10/17 13:37:54;;;;;;;136.13;129.45;;;;;;;;;;5020305;28;20649;-65
2022/10/17 13:40:30;;;;;;;149.65;142.30;;;;;;;;;;5018370;28;20052;-64
2022/10/17 13:42:57;;;;;;;139.95;133.10;;;;;;;;;;5020346;28;20038;-64
2022/10/17 13:45:36;;;;;;;141.32;134.38;;;;;;;;;;5015619;28;20049;-66
2022/10/17 13:48:15;;;;;;;134.10;127.55;;;;;;;;;;5020686;28;20033;-65
2022/10/17 13:50:42;;;;;;;131.75;125.30;;;;;;;;;;5022001;28;20053;-64
2022/10/17 13:53:31;;;;;;;125.55;119.38;;;;;;;;;;5020479;28;20038;-66
2022/10/17 13:56:01;;;;;;;128.63;122.00;;;;;;;;;;5018615;28;20156;-65
2022/10/17 13:58:48;;;;;;;137.45;130.73;;;;;;;;;;5016601;28;20080;-65
2022/10/17 14:01:14;;;;;;;113.78;108.20;;;;;;;;;;5020589;28;20041;-65
2022/10/17 14:03:41;;;;;;;124.88;118.68;;;;;;;;;;5018458;28;20086;-65
2022/10/17 14:06:13;;;;;;;122.38;116.35;;;;;;;;;;5019468;28;20434;-65
2022/10/17 14:08:47;;;;;;;125.10;119.00;;;;;;;;;;5020590;28;20033;-66
2022/10/17 14:11:19;;;;;;;117.25;111.53;;;;;;;;;;5017597;28;20368;-65
2022/10/17 14:13:48;;;;;;;113.05;107.55;;;;;;;;;;5016719;28;20049;-66
2022/10/17 14:16:14;;;;;;;112.70;107.18;;;;;;;;;;5025351;28;20092;-66
2022/10/17 14:18:39;;;;;;;104.47;99.35;;;;;;;;;;5017934;28;20117;-66
2022/10/17 14:21:06;;;;;;;110.40;104.97;;;;;;;;;;5016118;28;20065;-66
2022/10/17 14:23:40;;;;;;;102.45;97.47;;;;;;;;;;5016862;28;20037;-66
2022/10/17 14:26:22;;;;;;;114.38;108.80;;;;;;;;;;5017626;28;20025;-67
2022/10/17 14:28:50;;;;;;;125.65;119.20;;;;;;;;;;5017632;28;20116;-66
2022/10/17 14:31:29;;;;;;;124.65;118.57;;;;;;;;;;5013869;28;20478;-66
2022/10/17 14:33:55;;;;;;;108.20;102.90;;;;;;;;;;5018052;28;20060;-66
2022/10/17 14:36:33;;;;;;;112.40;106.90;;;;;;;;;;5021747;28;20040;-66
2022/10/17 14:38:59;;;;;;;97.63;92.88;;;;;;;;;;5019283;28;20053;-66
2022/10/17 14:41:34;;;;;;;94.93;90.28;;;;;;;;;;5018877;28;20030;-66
2022/10/17 14:44:05;;;;;;;107.00;101.80;;;;;;;;;;5016446;28;20111;-67
2022/10/17 14:46:33;;;;;;;97.93;93.10;;;;;;;;;;5016349;28;20033;-66
2022/10/17 14:49:15;;;;;;;98.45;93.63;;;;;;;;;;5015354;28;20030;-66
2022/10/17 14:52:09;;;;;;;101.40;96.43;;;;;;;;;;5015196;28;20359;-67